createdAt,value
2023-04-02T00:01:01.035Z,9.15
2023-04-02T00:04:02.524Z,9.13
2023-04-02T00:06:36.458Z,9.57
2023-04-02T00:09:14.424Z,9.63
2023-04-02T00:11:50.622Z,9.65
2023-04-02T00:14:34.033Z,9.05
2023-04-02T00:17:06.027Z,8.49
2023-04-02T00:19:46.722Z,8.75
2023-04-02T00:22:26.935Z,8.91
2023-04-02T00:25:03.971Z,9.23
2023-04-02T00:27:36.234Z,9.04
2023-04-02T00:30:11.819Z,8.75
2023-04-02T00:32:43.977Z,9.04
2023-04-02T00:35:26.508Z,9.16
2023-04-02T00:37:58.606Z,9.72
2023-04-02T00:40:31.960Z,9.53
2023-04-02T00:43:07.675Z,9.89
2023-04-02T00:45:41.444Z,9.83
2023-04-02T00:48:22.130Z,9.87
2023-04-02T00:50:55.161Z,9.90
2023-04-02T00:53:30.791Z,9.54
2023-04-02T00:56:03.859Z,9.27
2023-04-02T00:58:37.420Z,9.74
2023-04-02T01:01:22.113Z,9.42
2023-04-02T01:04:02.592Z,9.36
2023-04-02T01:06:38.868Z,9.29
2023-04-02T01:09:37.105Z,8.50
2023-04-02T01:12:28.076Z,9.04
2023-04-02T01:15:00.217Z,9.17
2023-04-02T01:18:06.802Z,9.17
2023-04-02T01:20:54.147Z,9.35
2023-04-02T01:23:35.356Z,9.39
2023-04-02T01:26:13.429Z,9.20
2023-04-02T01:29:05.804Z,9.41
2023-04-02T01:31:40.429Z,9.72
2023-04-02T01:34:18.425Z,9.67
2023-04-02T01:36:56.041Z,9.16
2023-04-02T01:39:43.314Z,9.50
2023-04-02T01:42:21.711Z,9.67
2023-04-02T01:45:11.557Z,9.06
2023-04-02T01:47:45.246Z,9.09
2023-04-02T01:50:27.247Z,9.09
2023-04-02T01:53:10.295Z,9.49
2023-04-02T01:55:44.715Z,9.35
2023-04-02T01:58:24.983Z,9.21
2023-04-02T02:01:23.598Z,9.32
2023-04-02T02:03:57.143Z,8.81
2023-04-02T02:06:30.628Z,9.03
2023-04-02T02:09:06.580Z,9.22
2023-04-02T02:11:41.740Z,8.96
2023-04-02T02:14:19.075Z,8.77
2023-04-02T02:16:56.308Z,8.90
2023-04-02T02:19:49.513Z,8.93
2023-04-02T02:22:29.525Z,9.11
2023-04-02T02:25:06.399Z,9.40
2023-04-02T02:27:52.848Z,9.49
2023-04-02T02:30:44.163Z,9.47
2023-04-02T02:33:31.125Z,9.61
2023-04-02T02:36:24.748Z,9.70
2023-04-02T02:39:07.083Z,9.79
2023-04-02T02:42:05.770Z,9.51
2023-04-02T02:44:47.603Z,9.73
2023-04-02T02:47:29.230Z,9.14
2023-04-02T02:50:21.919Z,9.32
2023-04-02T02:52:58.752Z,9.50
2023-04-02T02:55:38.101Z,9.31
2023-04-02T02:58:27.896Z,8.76
2023-04-02T03:01:13.965Z,9.11
2023-04-02T03:03:53.711Z,9.09
2023-04-02T03:06:28.272Z,8.95
2023-04-02T03:09:18.760Z,8.63
2023-04-02T03:12:02.776Z,8.80
2023-04-02T03:15:00.453Z,8.98
2023-04-02T03:18:02.967Z,9.40
2023-04-02T03:20:48.631Z,9.71
2023-04-02T03:23:33.398Z,9.61
2023-04-02T03:26:27.149Z,9.35
2023-04-02T03:29:32.896Z,9.46
2023-04-02T03:32:29.472Z,9.63
2023-04-02T03:35:28.738Z,9.67
2023-04-02T03:38:11.340Z,9.89
2023-04-02T03:40:59.813Z,9.94
2023-04-02T03:43:56.787Z,9.83
2023-04-02T03:46:39.221Z,9.74
2023-04-02T03:49:29.457Z,9.71
2023-04-02T03:52:25.682Z,10.00
2023-04-02T03:55:02.655Z,10.12
2023-04-02T03:58:00.731Z,9.72
2023-04-02T04:00:53.144Z,10.16
2023-04-02T04:03:37.060Z,9.35
2023-04-02T04:06:20.197Z,8.37
2023-04-02T04:08:58.920Z,8.28
2023-04-02T04:11:35.658Z,7.92
2023-04-02T04:14:32.482Z,8.02
2023-04-02T04:17:20.126Z,7.98
2023-04-02T04:20:21.900Z,7.87
2023-04-02T04:23:15.861Z,7.84
2023-04-02T04:25:47.832Z,8.04
2023-04-02T04:28:37.146Z,8.04
2023-04-02T04:31:32.335Z,8.35
2023-04-02T04:34:16.354Z,8.52
2023-04-02T04:36:55.251Z,8.33
2023-04-02T04:39:47.426Z,8.94
2023-04-02T04:42:28.975Z,9.16
2023-04-02T04:45:37.343Z,9.39
2023-04-02T04:48:27.205Z,9.17
2023-04-02T04:51:08.536Z,9.32
2023-04-02T04:53:49.886Z,9.23
2023-04-02T04:56:29.306Z,9.18
2023-04-02T04:59:35.167Z,8.91
2023-04-02T05:02:15.656Z,9.36
2023-04-02T05:04:51.239Z,8.69
2023-04-02T05:07:35.161Z,9.29
2023-04-02T05:10:36.969Z,9.56
2023-04-02T05:13:18.599Z,9.74
2023-04-02T05:16:07.415Z,8.96
2023-04-02T05:19:05.933Z,8.51
2023-04-02T05:21:57.598Z,8.88
2023-04-02T05:25:14.692Z,8.58
2023-04-02T05:27:58.266Z,8.94
2023-04-02T05:30:40.216Z,9.17
2023-04-02T05:33:22.803Z,9.34
2023-04-02T05:36:10.124Z,8.53
2023-04-02T05:38:49.803Z,8.64
2023-04-02T05:41:28.471Z,9.03
2023-04-02T05:44:10.716Z,9.08
2023-04-02T05:46:52.887Z,9.43
2023-04-02T05:49:35.231Z,9.47
2023-04-02T05:52:20.161Z,9.49
2023-04-02T05:55:40.184Z,9.35
2023-04-02T05:58:37.067Z,9.49
2023-04-02T06:01:41.831Z,9.62
2023-04-02T06:04:41.071Z,9.21
2023-04-02T06:07:20.659Z,8.56
2023-04-02T06:10:07.313Z,8.82
2023-04-02T06:12:58.904Z,9.05
2023-04-02T06:15:34.257Z,9.13
2023-04-02T06:18:20.181Z,9.31
2023-04-02T06:20:54.473Z,8.91
2023-04-02T06:23:55.312Z,9.03
2023-04-02T06:26:41.121Z,9.31
2023-04-02T06:29:37.134Z,9.18
2023-04-02T06:32:12.177Z,8.87
2023-04-02T06:34:46.873Z,9.26
2023-04-02T06:37:30.040Z,9.74
2023-04-02T06:40:30.365Z,9.66
2023-04-02T06:43:25.970Z,9.86
2023-04-02T06:46:31.068Z,9.53
2023-04-02T06:49:35.718Z,9.83
2023-04-02T06:52:35.094Z,9.66
2023-04-02T06:55:30.328Z,9.24
2023-04-02T06:58:02.707Z,9.50
2023-04-02T07:00:39.209Z,9.65
2023-04-02T07:03:19.525Z,9.39
2023-04-02T07:05:51.428Z,9.67
2023-04-02T07:08:24.064Z,10.15
2023-04-02T07:10:56.147Z,9.93
2023-04-02T07:13:28.941Z,10.41
2023-04-02T07:16:01.952Z,10.65
2023-04-02T07:18:35.640Z,9.86
2023-04-02T07:21:10.921Z,10.02
2023-04-02T07:23:43.540Z,9.66
2023-04-02T07:26:19.407Z,10.00
2023-04-02T07:28:51.785Z,10.23
2023-04-02T07:31:26.867Z,9.64
2023-04-02T07:34:00.226Z,9.67
2023-04-02T07:36:32.513Z,9.20
2023-04-02T07:39:04.516Z,9.58
2023-04-02T07:41:56.994Z,9.98
2023-04-02T07:44:29.160Z,9.67
2023-04-02T07:47:01.199Z,10.50
2023-04-02T07:49:33.176Z,10.42
2023-04-02T07:52:05.321Z,10.59
2023-04-02T07:54:37.509Z,9.99
2023-04-02T07:57:09.380Z,10.49
2023-04-02T07:59:42.149Z,10.45
2023-04-02T08:02:23.919Z,10.22
2023-04-02T08:04:55.912Z,10.60
2023-04-02T08:07:28.381Z,10.01
2023-04-02T08:10:01.606Z,9.96
2023-04-02T08:12:33.546Z,10.28
2023-04-02T08:15:06.256Z,10.33
2023-04-02T08:17:38.242Z,10.33
2023-04-02T08:20:21.692Z,10.22
2023-04-02T08:22:53.544Z,9.74
2023-04-02T08:25:26.098Z,9.85
2023-04-02T08:27:57.960Z,10.22
2023-04-02T08:30:29.689Z,9.42
2023-04-02T08:33:01.973Z,9.75
2023-04-02T08:35:34.929Z,9.87
2023-04-02T08:38:07.590Z,9.97
2023-04-02T08:40:43.954Z,10.01
2023-04-02T08:43:25.207Z,10.13
2023-04-02T08:45:57.060Z,10.35
2023-04-02T08:48:34.044Z,10.75
2023-04-02T08:51:15.040Z,10.38
2023-04-02T08:53:47.472Z,11.14
2023-04-02T08:56:30.662Z,11.45
2023-04-02T08:59:11.363Z,11.47
2023-04-02T09:02:00.049Z,11.74
2023-04-02T09:04:34.194Z,11.18
2023-04-02T09:07:05.994Z,11.30
2023-04-02T09:09:38.724Z,11.57
2023-04-02T09:12:30.697Z,11.51
2023-04-02T09:15:14.487Z,11.94
2023-04-02T09:17:53.569Z,11.95
2023-04-02T09:20:27.385Z,12.01
2023-04-02T09:22:59.474Z,11.35
2023-04-02T09:25:32.075Z,11.53
2023-04-02T09:28:05.284Z,11.24
2023-04-02T09:31:14.526Z,10.96
2023-04-02T09:33:49.211Z,11.09
2023-04-02T09:36:34.920Z,11.18
2023-04-02T09:39:18.094Z,10.95
2023-04-02T09:41:59.071Z,10.43
2023-04-02T09:44:37.174Z,9.76
2023-04-02T09:47:24.900Z,9.78
2023-04-02T09:50:33.893Z,9.77
2023-04-02T09:53:29.649Z,9.69
2023-04-02T09:56:15.124Z,9.86
2023-04-02T09:59:01.854Z,10.26
2023-04-02T10:01:40.929Z,10.12
2023-04-02T10:04:44.872Z,10.42
2023-04-02T10:07:43.710Z,9.99
2023-04-02T10:10:26.288Z,10.76
2023-04-02T10:13:04.678Z,11.01
2023-04-02T10:15:57.645Z,10.67
2023-04-02T10:18:50.994Z,10.97
2023-04-02T10:21:30.963Z,10.73
2023-04-02T10:24:11.977Z,11.39
2023-04-02T10:27:11.678Z,10.94
2023-04-02T10:29:49.981Z,11.06
2023-04-02T10:32:31.958Z,10.74
2023-04-02T10:35:12.861Z,11.13
2023-04-02T10:37:50.803Z,10.94
2023-04-02T10:40:56.479Z,11.50
2023-04-02T10:43:45.474Z,11.69
2023-04-02T10:46:36.552Z,11.81
2023-04-02T10:49:30.395Z,11.24
2023-04-02T10:52:12.470Z,10.93
2023-04-02T10:54:56.824Z,11.09
2023-04-02T10:57:41.986Z,11.72
2023-04-02T11:00:22.729Z,12.25
2023-04-02T11:03:02.263Z,12.79
2023-04-02T11:05:46.779Z,12.50
2023-04-02T11:08:29.549Z,12.41
2023-04-02T11:11:09.912Z,12.28
2023-04-02T11:14:03.320Z,11.82
2023-04-02T11:16:39.322Z,12.05
2023-04-02T11:19:17.325Z,12.06
2023-04-02T11:22:00.042Z,12.24
2023-04-02T11:24:46.167Z,12.08
2023-04-02T11:27:20.804Z,12.66
2023-04-02T11:30:04.499Z,12.70
2023-04-02T11:32:39.754Z,12.31
2023-04-02T11:35:30.296Z,12.05
2023-04-02T11:38:23.546Z,12.45
2023-04-02T11:40:57.717Z,11.74
2023-04-02T11:43:32.632Z,11.52
2023-04-02T11:46:24.411Z,11.42
2023-04-02T11:49:38.445Z,11.42
2023-04-02T11:52:29.587Z,10.77
2023-04-02T11:55:24.726Z,10.47
2023-04-02T11:58:18.520Z,10.54
2023-04-02T12:01:19.928Z,10.41
2023-04-02T12:04:07.892Z,10.07
2023-04-02T12:07:10.824Z,10.04
2023-04-02T12:09:57.233Z,10.04
2023-04-02T12:12:37.667Z,9.88
2023-04-02T12:15:33.717Z,10.27
2023-04-02T12:18:15.491Z,10.30
2023-04-02T12:20:55.804Z,11.02
2023-04-02T12:23:35.210Z,10.39
2023-04-02T12:26:30.583Z,10.47
2023-04-02T12:29:25.405Z,10.68
2023-04-02T12:31:59.027Z,10.11
2023-04-02T12:34:31.187Z,10.28
2023-04-02T12:37:05.277Z,10.62
2023-04-02T12:39:37.722Z,10.88
2023-04-02T12:42:31.706Z,10.45
2023-04-02T12:45:05.946Z,10.05
2023-04-02T12:47:38.060Z,11.01
2023-04-02T12:50:17.121Z,10.51
2023-04-02T12:52:55.218Z,10.86
2023-04-02T12:55:27.482Z,11.25
2023-04-02T12:57:59.987Z,11.00
2023-04-02T13:00:33.696Z,11.42
2023-04-02T13:03:06.053Z,12.19
2023-04-02T13:05:53.829Z,11.29
2023-04-02T13:08:30.031Z,11.94
2023-04-02T13:11:04.790Z,10.97
2023-04-02T13:13:43.015Z,10.95
2023-04-02T13:16:14.859Z,11.67
2023-04-02T13:18:49.079Z,10.91
2023-04-02T13:21:21.035Z,10.97
2023-04-02T13:23:53.342Z,11.00
2023-04-02T13:26:28.476Z,11.41
2023-04-02T13:29:20.431Z,11.61
2023-04-02T13:31:55.397Z,11.32
2023-04-02T13:34:28.002Z,11.39
2023-04-02T13:37:00.449Z,12.00
2023-04-02T13:39:32.375Z,12.43
2023-04-02T13:42:04.849Z,12.52
2023-04-02T13:44:37.127Z,12.63
2023-04-02T13:47:14.731Z,12.79
2023-04-02T13:49:46.499Z,12.52
2023-04-02T13:52:18.658Z,11.92
2023-04-02T13:54:56.844Z,12.11
2023-04-02T13:57:28.598Z,12.36
2023-04-02T14:00:00.627Z,12.85
2023-04-02T14:02:33.871Z,12.80
2023-04-02T14:05:25.991Z,13.15
2023-04-02T14:08:21.705Z,12.60
2023-04-02T14:11:12.662Z,12.84
2023-04-02T14:13:53.488Z,12.86
2023-04-02T14:16:41.275Z,12.56
2023-04-02T14:19:21.161Z,12.34
2023-04-02T14:22:25.121Z,11.44
2023-04-02T14:24:59.842Z,12.07
2023-04-02T14:27:49.484Z,12.46
2023-04-02T14:30:37.947Z,11.83
2023-04-02T14:33:53.020Z,12.20
2023-04-02T14:36:28.047Z,12.38
2023-04-02T14:39:08.841Z,11.99
2023-04-02T14:42:09.632Z,12.63
2023-04-02T14:45:00.041Z,12.54
2023-04-02T14:47:41.191Z,12.37
2023-04-02T14:50:19.920Z,12.45
2023-04-02T14:53:00.366Z,11.67
2023-04-02T14:55:41.219Z,12.04
2023-04-02T14:58:27.770Z,11.68
2023-04-02T15:01:09.380Z,11.66
2023-04-02T15:03:53.297Z,12.03
2023-04-02T15:06:34.578Z,11.75
2023-04-02T15:09:52.837Z,12.12
2023-04-02T15:12:32.389Z,12.56
2023-04-02T15:15:24.283Z,12.16
2023-04-02T15:18:02.454Z,12.12
2023-04-02T15:21:19.350Z,12.43
2023-04-02T15:24:26.762Z,12.23
2023-04-02T15:27:25.156Z,12.14
2023-04-02T15:30:12.379Z,12.55
2023-04-02T15:32:44.982Z,12.30
2023-04-02T15:35:43.935Z,11.83
2023-04-02T15:38:22.777Z,12.26
2023-04-02T15:41:01.978Z,12.35
2023-04-02T15:43:42.911Z,12.28
2023-04-02T15:46:57.116Z,12.52
2023-04-02T15:49:38.090Z,12.39
2023-04-02T15:52:36.209Z,12.21
2023-04-02T15:55:19.742Z,12.49
2023-04-02T15:57:51.985Z,12.64
2023-04-02T16:00:51.911Z,12.83
2023-04-02T16:03:53.562Z,12.75
2023-04-02T16:07:16.854Z,12.75
2023-04-02T16:10:00.860Z,12.61
2023-04-02T16:12:37.247Z,12.49
2023-04-02T16:15:26.644Z,12.54
2023-04-02T16:18:10.226Z,12.69
2023-04-02T16:20:48.673Z,12.49
2023-04-02T16:23:31.622Z,12.18
2023-04-02T16:26:23.377Z,12.35
2023-04-02T16:29:13.218Z,11.90
2023-04-02T16:31:57.563Z,11.77
2023-04-02T16:34:38.675Z,11.77
2023-04-02T16:37:24.601Z,11.83
2023-04-02T16:40:18.113Z,11.83
2023-04-02T16:43:05.486Z,11.81
2023-04-02T16:45:37.414Z,11.98
2023-04-02T16:48:22.295Z,11.74
2023-04-02T16:51:12.706Z,12.38
2023-04-02T16:54:09.920Z,12.57
2023-04-02T16:57:05.871Z,11.87
2023-04-02T16:59:52.960Z,12.25
2023-04-02T17:02:39.870Z,11.80
2023-04-02T17:05:20.551Z,12.11
2023-04-02T17:08:01.808Z,12.01
2023-04-02T17:10:58.564Z,12.13
2023-04-02T17:13:52.519Z,12.01
2023-04-02T17:16:35.732Z,12.28
2023-04-02T17:19:14.769Z,12.41
2023-04-02T17:21:50.335Z,12.76
2023-04-02T17:24:44.429Z,12.45
2023-04-02T17:27:48.603Z,12.54
2023-04-02T17:30:41.895Z,12.71
2023-04-02T17:33:16.329Z,12.61
2023-04-02T17:36:18.145Z,12.72
2023-04-02T17:39:08.208Z,12.64
2023-04-02T17:42:09.777Z,12.48
2023-04-02T17:45:32.818Z,12.60
2023-04-02T17:48:25.333Z,12.50
2023-04-02T17:51:00.275Z,12.67
2023-04-02T17:53:45.464Z,12.06
2023-04-02T17:57:11.524Z,12.22
2023-04-02T17:59:59.213Z,12.33
2023-04-02T18:02:59.150Z,12.39
2023-04-02T18:05:44.599Z,12.49
2023-04-02T18:08:19.381Z,12.51
2023-04-02T18:11:10.042Z,12.08
2023-04-02T18:14:22.873Z,12.37
2023-04-02T18:17:09.453Z,11.91
2023-04-02T18:20:14.823Z,12.39
2023-04-02T18:23:03.715Z,12.35
2023-04-02T18:26:05.561Z,12.22
2023-04-02T18:28:43.217Z,12.35
2023-04-02T18:31:58.955Z,12.02
2023-04-02T18:34:55.051Z,12.14
2023-04-02T18:37:55.783Z,12.21
2023-04-02T18:40:49.496Z,12.12
2023-04-02T18:43:39.605Z,11.67
2023-04-02T18:46:41.895Z,11.72
2023-04-02T18:49:23.412Z,11.78
2023-04-02T18:52:01.980Z,11.87
2023-04-02T18:54:39.529Z,11.17
2023-04-02T18:57:17.463Z,11.38
2023-04-02T18:59:57.386Z,10.96
2023-04-02T19:03:01.761Z,11.33
2023-04-02T19:05:58.529Z,10.83
2023-04-02T19:08:39.887Z,10.74
2023-04-02T19:11:23.326Z,11.02
2023-04-02T19:14:00.540Z,11.31
2023-04-02T19:17:11.860Z,11.43
2023-04-02T19:20:07.928Z,11.54
2023-04-02T19:22:53.243Z,11.68
2023-04-02T19:25:28.484Z,11.45
2023-04-02T19:28:16.933Z,11.31
2023-04-02T19:31:09.106Z,11.15
2023-04-02T19:34:17.440Z,11.41
2023-04-02T19:37:15.704Z,11.40
2023-04-02T19:40:04.159Z,11.07
2023-04-02T19:42:48.730Z,11.00
2023-04-02T19:45:42.754Z,11.04
2023-04-02T19:48:34.925Z,11.15
2023-04-02T19:51:06.709Z,10.98
2023-04-02T19:53:38.510Z,10.93
2023-04-02T19:56:10.448Z,11.04
2023-04-02T19:58:42.110Z,10.95
2023-04-02T20:01:13.870Z,11.05
2023-04-02T20:03:45.613Z,10.95
2023-04-02T20:06:17.588Z,10.74
2023-04-02T20:08:49.350Z,11.07
2023-04-02T20:11:21.126Z,11.04
2023-04-02T20:13:53.588Z,11.06
2023-04-02T20:16:25.266Z,10.96
2023-04-02T20:18:57.043Z,11.07
2023-04-02T20:21:28.816Z,11.19
2023-04-02T20:24:00.777Z,11.06
2023-04-02T20:26:32.639Z,10.75
2023-04-02T20:29:04.462Z,11.12
2023-04-02T20:31:36.273Z,11.08
2023-04-02T20:34:16.438Z,11.48
2023-04-02T20:36:48.399Z,11.37
2023-04-02T20:39:20.521Z,11.43
2023-04-02T20:41:52.509Z,11.32
2023-04-02T20:44:24.515Z,11.40
2023-04-02T20:46:56.208Z,11.34
2023-04-02T20:49:28.099Z,11.07
2023-04-02T20:52:00.007Z,11.05
2023-04-02T20:54:32.179Z,11.21
2023-04-02T20:57:03.983Z,11.23
2023-04-02T20:59:35.864Z,11.32
2023-04-02T21:02:11.972Z,11.33
2023-04-02T21:04:43.710Z,11.20
2023-04-02T21:07:15.435Z,11.23
2023-04-02T21:09:47.165Z,11.10
2023-04-02T21:12:19.756Z,10.97
2023-04-02T21:14:51.536Z,11.06
2023-04-02T21:17:24.128Z,11.02
2023-04-02T21:19:55.887Z,11.17
2023-04-02T21:22:28.012Z,11.10
2023-04-02T21:24:59.880Z,10.83
2023-04-02T21:27:31.696Z,10.96
2023-04-02T21:30:04.052Z,10.84
2023-04-02T21:32:36.355Z,10.60
2023-04-02T21:35:08.820Z,10.83
2023-04-02T21:37:40.776Z,10.88
2023-04-02T21:40:12.592Z,11.10
2023-04-02T21:42:44.300Z,10.91
2023-04-02T21:45:16.644Z,10.76
2023-04-02T21:47:48.415Z,10.61
2023-04-02T21:50:20.243Z,10.67
2023-04-02T21:52:52.056Z,10.81
2023-04-02T21:55:23.948Z,10.79
2023-04-02T21:57:56.054Z,10.51
2023-04-02T22:00:28.751Z,10.48
2023-04-02T22:03:00.934Z,10.59
2023-04-02T22:05:32.991Z,10.84
2023-04-02T22:08:05.200Z,11.02
2023-04-02T22:10:37.643Z,10.95
2023-04-02T22:13:09.753Z,10.65
2023-04-02T22:15:41.931Z,10.73
2023-04-02T22:18:14.005Z,10.85
2023-04-02T22:20:45.865Z,10.83
2023-04-02T22:23:19.535Z,10.81
2023-04-02T22:25:52.733Z,10.47
2023-04-02T22:28:25.298Z,10.31
2023-04-02T22:31:05.176Z,10.71
2023-04-02T22:33:37.581Z,10.93
2023-04-02T22:36:10.324Z,10.88
2023-04-02T22:38:42.504Z,10.77
2023-04-02T22:41:17.422Z,10.66
2023-04-02T22:43:49.672Z,10.82
2023-04-02T22:46:22.527Z,10.80
2023-04-02T22:48:54.785Z,10.57
2023-04-02T22:51:27.258Z,10.72
2023-04-02T22:53:58.928Z,10.25
2023-04-02T22:56:30.670Z,10.60
2023-04-02T22:59:02.424Z,10.58
2023-04-02T23:01:36.285Z,10.36
2023-04-02T23:04:08.500Z,10.30
2023-04-02T23:06:40.460Z,10.21
2023-04-02T23:09:12.126Z,10.30
2023-04-02T23:11:43.887Z,10.03
2023-04-02T23:14:15.736Z,9.68
2023-04-02T23:16:47.476Z,9.68
2023-04-02T23:19:19.154Z,9.38
2023-04-02T23:21:51.532Z,9.45
2023-04-02T23:24:23.399Z,9.38
2023-04-02T23:26:55.074Z,9.85
2023-04-02T23:29:27.045Z,9.53
2023-04-02T23:31:58.964Z,9.83
2023-04-02T23:34:30.805Z,9.37
2023-04-02T23:37:02.691Z,9.66
2023-04-02T23:39:34.351Z,10.00
2023-04-02T23:42:06.099Z,9.85
2023-04-02T23:44:38.125Z,9.92
2023-04-02T23:47:09.896Z,10.06
2023-04-02T23:49:41.583Z,10.06
2023-04-02T23:52:14.640Z,9.67
2023-04-02T23:54:46.652Z,10.10
2023-04-02T23:57:18.352Z,10.09
2023-04-02T23:59:51.761Z,10.02
